Time;durP1;ratioP1;P1;durP2;ratioP2;P2;SDS_P1;SDS_P2;PMS_P1;PMS_P2;Temp;Humidity;BMP_temperature;BMP_pressure;BME280_temperature;BME280_humidity;BME280_pressure;Samples;Min_cycle;Max_cycle;Signal;HPM_P1;HPM_P2
2022/06/17 00:00:24;;;;;;;12.73;7.37;;;17.50;99.90;;;;;;5092406;28;20210;-69
2022/06/17 00:02:51;;;;;;;11.73;7.23;;;17.50;99.90;;;;;;5093170;28;20211;-71
2022/06/17 00:05:18;;;;;;;12.90;7.30;;;17.50;99.90;;;;;;5093087;28;20291;-70
2022/06/17 00:07:47;;;;;;;11.70;7.00;;;17.50;99.90;;;;;;5093097;28;20209;-69
2022/06/17 00:10:20;;;;;;;12.73;6.80;;;17.50;99.90;;;;;;5092458;28;20257;-71
2022/06/17 00:12:48;;;;;;;15.90;7.53;;;17.50;99.90;;;;;;5092631;28;20281;-70
2022/06/17 00:15:15;;;;;;;14.10;7.30;;;17.50;99.90;;;;;;5093095;28;20747;-70
2022/06/17 00:17:45;;;;;;;12.63;7.03;;;17.50;99.90;;;;;;5091890;28;20746;-68
2022/06/17 00:20:15;;;;;;;15.80;7.23;;;17.50;99.90;;;;;;5092336;28;20199;-71
2022/06/17 00:22:44;;;;;;;14.97;7.30;;;17.50;99.90;;;;;;5092412;28;20210;-71
2022/06/17 00:25:29;;;;;;;10.93;6.80;;;17.40;99.90;;;;;;5092350;28;20288;-69
2022/06/17 00:27:56;;;;;;;12.37;6.57;;;17.40;99.90;;;;;;5089625;28;20208;-69
2022/06/17 00:30:25;;;;;;;8.77;5.80;;;17.40;99.90;;;;;;5092071;28;20283;-71
2022/06/17 00:32:56;;;;;;;10.00;6.20;;;17.40;99.90;;;;;;5091911;28;20204;-68
2022/06/17 00:35:25;;;;;;;11.83;6.47;;;17.30;99.90;;;;;;5092656;28;20256;-70
2022/06/17 00:37:51;;;;;;;13.37;7.63;;;17.30;99.90;;;;;;5089468;28;20297;-69
2022/06/17 00:40:21;;;;;;;13.03;6.83;;;17.30;99.90;;;;;;5091389;28;20651;-69
2022/06/17 00:42:50;;;;;;;13.23;7.40;;;17.20;99.90;;;;;;5092232;28;20618;-70
2022/06/17 00:45:25;;;;;;;12.33;5.70;;;17.20;99.90;;;;;;5091986;28;20204;-69
2022/06/17 00:47:58;;;;;;;10.77;6.40;;;17.10;99.90;;;;;;5091031;28;20242;-68
2022/06/17 00:50:31;;;;;;;14.17;6.93;;;17.10;99.90;;;;;;5091694;28;20558;-69
2022/06/17 00:53:10;;;;;;;11.67;6.30;;;17.00;99.90;;;;;;5091694;28;20694;-70
2022/06/17 00:55:42;;;;;;;10.77;6.23;;;17.00;99.90;;;;;;5091706;28;20254;-69
2022/06/17 00:58:16;;;;;;;11.73;6.47;;;16.90;99.90;;;;;;5090679;28;20311;-68
2022/06/17 01:00:44;;;;;;;11.53;6.63;;;16.90;99.90;;;;;;5091520;28;20559;-68
2022/06/17 01:03:16;;;;;;;10.83;6.17;;;16.90;99.90;;;;;;5091705;28;20283;-69
2022/06/17 01:05:47;;;;;;;11.80;6.60;;;16.80;99.90;;;;;;5090059;28;20863;-69
2022/06/17 01:09:56;;;;;;;11.03;6.70;;;16.70;99.90;;;;;;5091679;28;20188;-68
2022/06/17 01:11:07;;;;;;;10.80;6.67;;;16.70;99.90;;;;;;5091297;28;20214;-69
2022/06/17 01:13:36;;;;;;;11.40;6.57;;;16.60;99.90;;;;;;5090525;28;20215;-69
2022/06/17 01:16:04;;;;;;;13.67;6.63;;;16.60;99.90;;;;;;5090311;28;20306;-68
2022/06/17 01:18:35;;;;;;;10.40;6.33;;;16.60;99.90;;;;;;5091364;28;20210;-67
2022/06/17 01:21:09;;;;;;;10.77;6.40;;;16.60;99.90;;;;;;5090991;28;20189;-68
2022/06/17 01:23:38;;;;;;;12.23;6.43;;;16.60;99.90;;;;;;5090820;28;20203;-68
2022/06/17 01:26:05;;;;;;;10.67;6.53;;;16.60;99.90;;;;;;5090502;28;20286;-69
2022/06/17 01:28:32;;;;;;;10.10;5.70;;;16.60;99.90;;;;;;5091292;28;20200;-69
2022/06/17 01:31:00;;;;;;;11.87;6.70;;;16.60;99.90;;;;;;5090784;28;20228;-70
2022/06/17 01:33:30;;;;;;;10.17;6.20;;;16.60;99.90;;;;;;5091449;28;20219;-70
2022/06/17 01:36:00;;;;;;;11.13;6.10;;;16.60;99.90;;;;;;5090357;28;20274;-68
2022/06/17 01:38:28;;;;;;;11.73;6.43;;;16.60;99.90;;;;;;5091893;28;20573;-69
2022/06/17 01:40:58;;;;;;;12.13;6.83;;;16.60;99.90;;;;;;5090888;28;20228;-69
2022/06/17 01:43:30;;;;;;;10.73;7.00;;;16.60;99.90;;;;;;5091556;28;20299;-69
2022/06/17 01:46:02;;;;;;;12.77;7.07;;;16.50;99.90;;;;;;5090471;28;20196;-69
2022/06/17 01:48:33;;;;;;;10.77;6.57;;;16.50;99.90;;;;;;5091771;28;20279;-69
2022/06/17 01:51:02;;;;;;;11.50;6.30;;;16.50;99.90;;;;;;5090476;28;20294;-69
2022/06/17 01:53:33;;;;;;;11.87;7.07;;;16.50;99.90;;;;;;5090441;28;20207;-69
2022/06/17 01:56:03;;;;;;;14.47;8.03;;;16.50;99.90;;;;;;5091433;28;20212;-70
2022/06/17 01:58:36;;;;;;;14.40;7.93;;;16.50;99.90;;;;;;5091526;28;20319;-70
2022/06/17 02:01:05;;;;;;;13.43;7.27;;;16.50;99.90;;;;;;5090900;28;20231;-69
2022/06/17 02:03:36;;;;;;;13.07;7.40;;;16.50;99.90;;;;;;5089926;28;20763;-69
2022/06/17 02:06:08;;;;;;;14.43;8.07;;;16.50;99.90;;;;;;5091103;28;20207;-69
2022/06/17 02:08:35;;;;;;;13.23;7.50;;;16.50;99.90;;;;;;5091322;28;20283;-69
2022/06/17 02:11:06;;;;;;;12.67;8.03;;;16.40;99.90;;;;;;5091078;28;20207;-68
2022/06/17 02:13:34;;;;;;;12.10;7.50;;;16.50;99.90;;;;;;5089660;28;20298;-69
2022/06/17 02:16:04;;;;;;;17.43;9.63;;;16.50;99.90;;;;;;5091660;28;20662;-69
2022/06/17 02:18:32;;;;;;;16.63;8.73;;;16.50;99.90;;;;;;5091246;28;20271;-70
2022/06/17 02:21:05;;;;;;;15.47;8.07;;;16.50;99.90;;;;;;5090873;28;20257;-68
2022/06/17 02:23:34;;;;;;;15.43;8.57;;;16.60;99.90;;;;;;5089753;28;20196;-70
2022/06/17 02:26:02;;;;;;;17.90;8.77;;;16.60;99.90;;;;;;5088903;28;20702;-71
2022/06/17 02:28:33;;;;;;;16.10;8.43;;;16.70;99.90;;;;;;5090624;28;20207;-70
2022/06/17 02:31:02;;;;;;;20.87;8.60;;;16.70;99.90;;;;;;5090931;28;20223;-71
2022/06/17 02:33:30;;;;;;;15.27;8.40;;;16.80;99.90;;;;;;5089888;28;20694;-69
2022/06/17 02:36:01;;;;;;;14.47;7.70;;;16.80;99.90;;;;;;5090754;28;20225;-70
2022/06/17 02:38:31;;;;;;;15.33;7.80;;;16.90;99.90;;;;;;5091062;28;20199;-68
2022/06/17 02:41:05;;;;;;;14.90;7.90;;;17.00;99.90;;;;;;5090634;28;20293;-69
2022/06/17 02:43:36;;;;;;;17.73;9.97;;;17.10;99.90;;;;;;5089785;28;20244;-70
2022/06/17 02:46:08;;;;;;;14.40;8.40;;;17.20;99.90;;;;;;5091150;28;20186;-71
2022/06/17 02:48:45;;;;;;;13.30;8.23;;;17.30;99.90;;;;;;5090878;28;20262;-70
2022/06/17 02:51:14;;;;;;;11.10;7.20;;;17.40;99.90;;;;;;5091051;28;20527;-69
2022/06/17 02:53:43;;;;;;;14.00;7.60;;;17.50;99.90;;;;;;5087979;28;20829;-69
2022/06/17 02:56:16;;;;;;;15.97;8.17;;;17.50;99.90;;;;;;5090772;28;20235;-69
2022/06/17 02:58:53;;;;;;;14.17;7.60;;;17.60;99.90;;;;;;5090194;28;20228;-69
2022/06/17 03:01:23;;;;;;;11.73;7.40;;;17.60;99.90;;;;;;5090312;28;20205;-70
2022/06/17 03:03:51;;;;;;;15.40;8.27;;;17.60;99.90;;;;;;5093475;28;20287;-69
2022/06/17 03:06:22;;;;;;;10.97;7.27;;;17.60;99.90;;;;;;5094270;28;20208;-69
2022/06/17 03:08:53;;;;;;;12.20;6.70;;;17.60;99.90;;;;;;5094561;28;20696;-68
2022/06/17 03:11:21;;;;;;;13.03;7.00;;;17.60;99.90;;;;;;5093654;28;20209;-70
2022/06/17 03:13:52;;;;;;;14.60;7.23;;;17.60;99.90;;;;;;5093913;28;20295;-70
2022/06/17 03:16:21;;;;;;;14.53;7.37;;;17.70;99.90;;;;;;5093987;28;20258;-70
2022/06/17 03:18:50;;;;;;;12.60;6.70;;;17.70;99.90;;;;;;5094543;28;20725;-69
2022/06/17 03:21:23;;;;;;;10.07;6.03;;;17.70;99.90;;;;;;5093509;28;20286;-71
2022/06/17 03:23:54;;;;;;;12.70;6.70;;;17.70;99.90;;;;;;5094184;28;20217;-72
2022/06/17 03:26:26;;;;;;;11.43;7.60;;;17.70;99.90;;;;;;5093662;28;20189;-70
2022/06/17 03:28:56;;;;;;;12.50;6.77;;;17.80;99.90;;;;;;5093938;28;20231;-70
2022/06/17 03:31:31;;;;;;;10.23;6.90;;;17.80;99.90;;;;;;5092172;28;20201;-69
2022/06/17 03:34:02;;;;;;;11.63;6.50;;;17.80;99.90;;;;;;5092820;28;20371;-69
2022/06/17 03:36:36;;;;;;;10.80;6.77;;;17.80;99.90;;;;;;5092899;28;20258;-69
2022/06/17 03:39:06;;;;;;;10.73;6.80;;;17.90;99.90;;;;;;5093997;28;20250;-70
2022/06/17 03:41:41;;;;;;;11.90;6.40;;;18.00;99.90;;;;;;5092349;28;20241;-69
2022/06/17 03:44:14;;;;;;;10.50;6.53;;;18.00;99.90;;;;;;5093725;28;20658;-69
2022/06/17 03:46:44;;;;;;;13.43;6.13;;;18.10;99.90;;;;;;5093108;28;20271;-71
2022/06/17 03:49:18;;;;;;;9.40;4.73;;;18.10;99.90;;;;;;5092682;28;20224;-71
2022/06/17 03:51:45;;;;;;;6.83;4.17;;;18.20;99.90;;;;;;5093615;28;20659;-72
2022/06/17 03:54:14;;;;;;;12.10;4.27;;;18.30;99.90;;;;;;5092488;28;20282;-72
2022/06/17 03:56:44;;;;;;;5.97;3.60;;;18.30;99.90;;;;;;5093138;28;20730;-71
2022/06/17 03:59:16;;;;;;;7.17;3.80;;;18.40;99.90;;;;;;5092136;28;20322;-71
2022/06/17 04:01:47;;;;;;;7.50;4.43;;;18.40;99.90;;;;;;5093713;28;20238;-71
2022/06/17 04:04:17;;;;;;;6.73;4.33;;;18.50;99.90;;;;;;5093515;28;20217;-70
2022/06/17 04:06:46;;;;;;;7.50;4.60;;;18.60;99.90;;;;;;5092911;28;20222;-70
2022/06/17 04:09:16;;;;;;;9.63;4.77;;;18.60;99.90;;;;;;5092232;28;20209;-70
2022/06/17 04:11:46;;;;;;;8.60;4.83;;;18.70;99.90;;;;;;5093186;28;20206;-72
2022/06/17 04:14:21;;;;;;;9.70;4.80;;;18.80;99.90;;;;;;5093084;28;20627;-72
2022/06/17 04:16:56;;;;;;;8.53;4.20;;;18.80;99.90;;;;;;5092427;28;20243;-71
2022/06/17 04:19:24;;;;;;;7.17;4.00;;;18.90;99.90;;;;;;5091779;28;20293;-72
2022/06/17 04:21:52;;;;;;;9.30;4.80;;;18.90;99.90;;;;;;5092799;28;20252;-71
2022/06/17 04:24:23;;;;;;;8.90;4.17;;;19.00;99.90;;;;;;5092398;28;20215;-71
2022/06/17 04:26:54;;;;;;;15.23;5.13;;;19.10;99.90;;;;;;5091220;28;20222;-71
2022/06/17 04:29:34;;;;;;;14.23;8.00;;;19.20;99.90;;;;;;5092167;28;20202;-72
2022/06/17 04:32:05;;;;;;;16.17;5.37;;;19.30;99.90;;;;;;5092451;28;20278;-71
2022/06/17 04:34:32;;;;;;;7.33;3.90;;;19.40;99.90;;;;;;5092465;28;20602;-71
2022/06/17 04:37:03;;;;;;;7.47;3.60;;;19.50;99.90;;;;;;5091292;28;20803;-72
2022/06/17 04:39:34;;;;;;;4.73;3.10;;;19.60;99.90;;;;;;5091569;28;20279;-72
2022/06/17 04:42:04;;;;;;;4.90;3.00;;;19.70;99.90;;;;;;5092722;28;20272;-72
2022/06/17 04:44:33;;;;;;;8.33;2.80;;;19.80;99.90;;;;;;5092927;28;20373;-71
2022/06/17 04:47:05;;;;;;;6.00;3.17;;;19.90;99.90;;;;;;5091093;28;20283;-72
2022/06/17 04:49:35;;;;;;;4.77;2.77;;;20.00;99.90;;;;;;5091090;28;20713;-72
2022/06/17 04:52:06;;;;;;;6.07;3.00;;;20.10;99.90;;;;;;5093935;28;20632;-74
2022/06/17 04:54:34;;;;;;;8.47;3.30;;;20.20;99.90;;;;;;5092308;28;20286;-73
2022/06/17 04:57:04;;;;;;;6.40;3.30;;;20.20;99.90;;;;;;5092054;28;20322;-70
2022/06/17 04:59:36;;;;;;;9.33;3.17;;;20.40;99.90;;;;;;5091652;28;20320;-74
2022/06/17 05:02:07;;;;;;;11.67;4.50;;;20.50;99.90;;;;;;5092671;28;20188;-71
2022/06/17 05:04:34;;;;;;;11.43;3.97;;;20.60;99.80;;;;;;5091431;28;20192;-72
2022/06/17 05:07:01;;;;;;;9.77;4.03;;;20.60;99.90;;;;;;5092451;28;20236;-71
2022/06/17 05:09:32;;;;;;;6.77;3.50;;;20.70;99.90;;;;;;5089591;28;20291;-71
2022/06/17 05:12:05;;;;;;;5.10;3.43;;;20.80;99.90;;;;;;5091344;28;20292;-72
2022/06/17 05:14:41;;;;;;;4.80;3.10;;;20.90;99.90;;;;;;5091293;28;20282;-72
2022/06/17 05:17:08;;;;;;;5.20;3.50;;;21.00;99.90;;;;;;5091848;28;20303;-73
2022/06/17 05:19:35;;;;;;;5.17;3.30;;;21.10;99.90;;;;;;5090013;28;20261;-73
2022/06/17 05:22:03;;;;;;;4.80;3.20;;;21.20;99.90;;;;;;5090101;28;20631;-72
2022/06/17 05:24:31;;;;;;;5.80;3.33;;;21.30;99.90;;;;;;5088579;28;20223;-71
2022/06/17 05:26:58;;;;;;;4.83;2.53;;;21.40;99.10;;;;;;5091712;28;20207;-72
2022/06/17 05:29:25;;;;;;;4.07;2.93;;;21.50;98.70;;;;;;5091387;28;20252;-73
2022/06/17 05:31:54;;;;;;;6.33;3.27;;;21.60;98.60;;;;;;5089340;28;20215;-73
2022/06/17 05:34:21;;;;;;;7.33;4.80;;;21.70;98.30;;;;;;5091208;28;20754;-71
2022/06/17 05:36:48;;;;;;;6.87;4.10;;;21.80;98.20;;;;;;5090276;28;20270;-73
2022/06/17 05:39:15;;;;;;;5.87;3.20;;;21.90;98.10;;;;;;5091022;28;20261;-71
2022/06/17 05:41:42;;;;;;;5.43;2.90;;;22.00;97.40;;;;;;5091339;28;20250;-71
2022/06/17 05:44:09;;;;;;;4.77;3.00;;;22.10;97.40;;;;;;5091394;28;20211;-71
2022/06/17 05:46:36;;;;;;;5.73;2.83;;;22.20;97.30;;;;;;5090885;28;20291;-72
2022/06/17 05:49:04;;;;;;;5.17;2.53;;;22.30;96.70;;;;;;5090883;28;20232;-74
2022/06/17 05:51:31;;;;;;;4.00;2.50;;;22.40;96.70;;;;;;5091521;28;20636;-71
2022/06/17 05:53:58;;;;;;;3.83;2.40;;;22.50;96.70;;;;;;5092102;28;20685;-73
2022/06/17 05:56:25;;;;;;;5.60;2.93;;;22.70;96.20;;;;;;5089372;28;20302;-73
2022/06/17 05:58:52;;;;;;;4.10;2.43;;;22.80;96.00;;;;;;5085274;28;20241;-72
2022/06/17 06:01:19;;;;;;;4.00;2.50;;;22.90;95.90;;;;;;5091738;28;20207;-71
2022/06/17 06:03:46;;;;;;;6.13;2.50;;;23.00;95.80;;;;;;5092178;28;20204;-70
2022/06/17 06:06:15;;;;;;;3.27;2.20;;;23.20;94.80;;;;;;5089408;28;20205;-70
2022/06/17 06:08:42;;;;;;;3.47;2.40;;;23.20;94.70;;;;;;5090752;28;20254;-72
2022/06/17 06:11:09;;;;;;;4.47;2.23;;;23.30;93.70;;;;;;5090940;28;20310;-71
2022/06/17 06:13:36;;;;;;;3.33;2.07;;;23.40;93.60;;;;;;5091563;28;20205;-73
2022/06/17 06:16:04;;;;;;;2.33;1.80;;;23.50;92.80;;;;;;5089605;28;20300;-74
2022/06/17 06:18:33;;;;;;;3.47;2.00;;;23.50;93.10;;;;;;5088216;28;20215;-72
2022/06/17 06:21:04;;;;;;;6.33;2.23;;;23.60;93.00;;;;;;5090890;28;20731;-75
2022/06/17 06:23:33;;;;;;;3.80;2.27;;;23.70;92.20;;;;;;5091014;28;20202;-70
2022/06/17 06:26:00;;;;;;;2.97;2.27;;;23.80;92.70;;;;;;5091194;28;20237;-71
2022/06/17 06:28:28;;;;;;;4.03;2.30;;;23.90;92.40;;;;;;5089653;28;20200;-72
2022/06/17 06:30:57;;;;;;;3.53;2.03;;;23.90;92.00;;;;;;5090022;28;20228;-71
2022/06/17 06:33:24;;;;;;;3.13;2.23;;;24.00;92.00;;;;;;5091021;28;20302;-72
2022/06/17 06:35:51;;;;;;;3.03;1.90;;;24.10;92.00;;;;;;5090179;28;20295;-73
2022/06/17 06:38:19;;;;;;;5.83;2.00;;;24.20;91.70;;;;;;5093503;28;20257;-71
2022/06/17 06:40:47;;;;;;;3.70;1.90;;;24.30;91.20;;;;;;5094311;28;20288;-71
2022/06/17 06:43:17;;;;;;;2.10;1.60;;;24.30;88.70;;;;;;5094351;28;20201;-73
2022/06/17 06:45:45;;;;;;;3.10;1.70;;;24.30;89.90;;;;;;5094394;28;20725;-72
2022/06/17 06:48:13;;;;;;;2.57;1.80;;;24.40;89.30;;;;;;5091929;28;20212;-71
2022/06/17 06:50:42;;;;;;;2.80;2.00;;;24.40;89.10;;;;;;5092336;28;20215;-72
2022/06/17 06:53:09;;;;;;;3.07;1.97;;;24.40;90.10;;;;;;5094371;28;20619;-72
2022/06/17 06:55:37;;;;;;;6.13;2.20;;;24.50;90.00;;;;;;5094877;28;20313;-73
2022/06/17 06:58:10;;;;;;;3.73;2.10;;;24.50;89.50;;;;;;5093965;28;20412;-71
2022/06/17 07:00:39;;;;;;;2.97;1.77;;;24.60;86.90;;;;;;5093509;28;20339;-74
2022/06/17 07:03:07;;;;;;;2.60;1.80;;;24.60;87.10;;;;;;5093539;28;20663;-73
2022/06/17 07:05:36;;;;;;;5.77;2.60;;;24.70;88.40;;;;;;5094290;28;20245;-72
2022/06/17 07:08:03;;;;;;;1.73;1.60;;;24.70;87.30;;;;;;5094016;28;20204;-72
2022/06/17 07:10:33;;;;;;;3.10;1.70;;;24.60;84.90;;;;;;5093275;28;20286;-74
2022/06/17 07:13:00;;;;;;;2.90;1.90;;;24.50;86.10;;;;;;5092711;28;20675;-72
2022/06/17 07:15:30;;;;;;;3.10;1.63;;;24.60;86.70;;;;;;5093936;28;20208;-72
2022/06/17 07:17:58;;;;;;;2.20;1.60;;;24.70;86.50;;;;;;5091450;28;20290;-71
2022/06/17 07:20:27;;;;;;;7.33;1.70;;;24.70;86.20;;;;;;5092197;28;20626;-74
2022/06/17 07:22:54;;;;;;;3.07;1.60;;;24.80;84.50;;;;;;5090965;28;20293;-73
2022/06/17 07:25:22;;;;;;;4.50;1.50;;;24.80;83.90;;;;;;5092230;28;20214;-71
2022/06/17 07:27:49;;;;;;;4.37;1.70;;;24.80;84.50;;;;;;5096264;28;20190;-70
2022/06/17 07:30:18;;;;;;;1.43;1.33;;;24.80;85.20;;;;;;5093271;28;20642;-78
2022/06/17 07:32:46;;;;;;;2.63;1.60;;;24.80;82.40;;;;;;5093064;28;20280;-76
2022/06/17 07:35:15;;;;;;;6.33;2.07;;;24.80;83.00;;;;;;5094360;28;20209;-74
2022/06/17 07:40:27;;;;;;;2.40;1.70;;;24.80;82.80;;;;;;5095493;28;20200;-75
2022/06/17 07:42:54;;;;;;;3.30;1.70;;;24.90;83.50;;;;;;5094026;28;20214;-73
2022/06/17 07:45:23;;;;;;;4.70;1.73;;;24.90;84.10;;;;;;5093634;28;20760;-74
2022/06/17 07:47:53;;;;;;;7.40;1.90;;;25.00;84.30;;;;;;5093535;28;20544;-74
2022/06/17 07:50:23;;;;;;;4.33;1.90;;;25.10;83.90;;;;;;5093668;28;20294;-75
2022/06/17 07:52:50;;;;;;;3.90;1.67;;;25.10;82.90;;;;;;5093937;28;20281;-74
2022/06/17 07:55:17;;;;;;;4.03;1.80;;;25.20;83.80;;;;;;5093668;28;20620;-74
2022/06/17 07:57:44;;;;;;;2.87;1.70;;;25.40;83.20;;;;;;5092856;28;20655;-76
2022/06/17 08:00:18;;;;;;;3.37;1.80;;;25.50;83.50;;;;;;5094683;28;20782;-75
2022/06/17 08:02:45;;;;;;;4.80;1.80;;;25.60;83.20;;;;;;5094190;28;20237;-74
2022/06/17 08:05:14;;;;;;;4.40;1.60;;;25.70;83.30;;;;;;5094384;28;20245;-75
2022/06/17 08:07:41;;;;;;;4.60;1.90;;;25.80;81.00;;;;;;5093681;28;20668;-75
2022/06/17 08:10:09;;;;;;;3.00;1.60;;;25.90;82.50;;;;;;5093495;28;20645;-76
2022/06/17 08:12:35;;;;;;;3.33;1.70;;;26.00;81.60;;;;;;5090528;28;20205;-74
2022/06/17 08:15:03;;;;;;;5.63;2.10;;;25.90;81.30;;;;;;5092429;28;20473;-74
2022/06/17 08:17:30;;;;;;;8.27;2.40;;;26.00;80.10;;;;;;5093778;28;20313;-75
2022/06/17 08:19:58;;;;;;;4.53;2.30;;;25.90;80.20;;;;;;5090843;28;20210;-77
2022/06/17 08:22:26;;;;;;;5.60;2.03;;;25.80;79.80;;;;;;5081813;28;20206;-73
2022/06/17 08:24:55;;;;;;;8.80;2.30;;;25.70;80.20;;;;;;5093090;28;20201;-74
2022/06/17 08:27:23;;;;;;;5.87;2.30;;;25.70;79.80;;;;;;5087798;28;20203;-75
2022/06/17 08:29:52;;;;;;;2.27;1.70;;;25.60;80.10;;;;;;5090598;28;20625;-80
2022/06/17 08:35:03;;;;;;;3.73;1.90;;;25.50;79.50;;;;;;5094361;28;20216;-76
2022/06/17 08:37:32;;;;;;;2.80;1.40;;;25.30;78.90;;;;;;5093960;28;20324;-77
2022/06/17 08:40:00;;;;;;;6.40;1.90;;;25.20;78.30;;;;;;5093193;28;20203;-79
2022/06/17 08:42:44;;;;;;;5.33;1.83;;;25.10;78.60;;;;;;5085049;28;20236;-77
2022/06/17 08:45:19;;;;;;;2.93;1.50;;;25.10;78.80;;;;;;5093698;28;20278;-78
2022/06/17 08:48:00;;;;;;;11.23;2.47;;;25.00;78.20;;;;;;5094174;28;20262;-80
2022/06/17 08:51:13;;;;;;;2.80;1.90;;;25.00;79.20;;;;;;5098200;28;20281;-79
2022/06/17 08:54:11;;;;;;;3.73;1.50;;;25.00;79.80;;;;;;5082784;28;20253;-79
2022/06/17 08:56:46;;;;;;;2.57;1.60;;;25.00;79.20;;;;;;5089379;28;20688;-81
2022/06/17 08:59:26;;;;;;;1.90;1.70;;;25.00;78.70;;;;;;5096528;28;20324;-83
2022/06/17 09:02:01;;;;;;;3.17;1.90;;;25.10;79.00;;;;;;5088615;28;20729;-78
2022/06/17 09:04:45;;;;;;;5.33;1.70;;;25.10;79.30;;;;;;5093751;28;20293;-80
2022/06/17 09:07:23;;;;;;;2.93;1.70;;;25.20;77.90;;;;;;5093170;28;20263;-82
2022/06/17 09:10:14;;;;;;;2.10;1.60;;;25.30;80.00;;;;;;5097621;28;20242;-82
2022/06/17 09:12:55;;;;;;;2.27;1.50;;;25.30;79.20;;;;;;5096592;28;20238;-81
2022/06/17 09:15:32;;;;;;;3.20;1.57;;;25.40;78.80;;;;;;5097992;28;20201;-83
2022/06/17 09:18:05;;;;;;;3.33;1.80;;;25.50;77.70;;;;;;5096884;28;20227;-82
2022/06/17 09:20:37;;;;;;;2.87;1.77;;;25.70;79.10;;;;;;5097386;28;20652;-81
2022/06/17 09:23:06;;;;;;;2.93;1.60;;;25.70;78.70;;;;;;5097560;28;20675;-78
2022/06/17 09:25:41;;;;;;;1.90;1.60;;;25.80;78.20;;;;;;5094568;28;20783;-78
2022/06/17 09:28:13;;;;;;;3.67;1.80;;;26.00;77.80;;;;;;5092717;28;20682;-77
2022/06/17 09:30:45;;;;;;;4.07;1.60;;;26.00;76.60;;;;;;5092837;28;20285;-75
2022/06/17 09:33:18;;;;;;;2.15;1.70;;;26.10;76.80;;;;;;5091472;28;20528;-80
2022/06/17 09:35:49;;;;;;;4.20;1.77;;;26.30;76.30;;;;;;5094749;28;20194;-80
2022/06/17 09:38:22;;;;;;;3.15;1.58;;;26.40;76.90;;;;;;5093038;28;20218;-81
2022/06/17 09:40:57;;;;;;;3.40;1.60;;;26.60;76.80;;;;;;5088915;28;20188;-81
2022/06/17 09:43:31;;;;;;;3.72;1.75;;;26.70;74.20;;;;;;5091443;28;20650;-78
2022/06/17 09:46:04;;;;;;;1.50;1.40;;;26.70;73.30;;;;;;5081396;28;20267;-80
2022/06/17 09:48:39;;;;;;;2.58;1.60;;;26.50;73.10;;;;;;5091288;28;20692;-78
2022/06/17 09:51:16;;;;;;;2.95;1.40;;;26.60;73.10;;;;;;5093134;28;20293;-80
2022/06/17 09:53:49;;;;;;;4.15;1.85;;;26.60;73.00;;;;;;5091686;28;20193;-76
2022/06/17 09:56:23;;;;;;;2.95;1.73;;;26.70;72.60;;;;;;5087580;28;20268;-77
2022/06/17 09:58:55;;;;;;;2.15;1.55;;;26.80;72.60;;;;;;5091789;28;20312;-79
2022/06/17 10:01:23;;;;;;;3.47;1.80;;;26.80;71.90;;;;;;5090685;28;20207;-79
2022/06/17 10:03:50;;;;;;;3.10;1.88;;;26.90;72.30;;;;;;5094038;28;20202;-80
2022/06/17 10:06:29;;;;;;;3.20;1.60;;;27.00;72.80;;;;;;5092976;28;20291;-79
2022/06/17 10:09:08;;;;;;;4.97;1.88;;;27.10;71.50;;;;;;5090856;28;20686;-77
2022/06/17 10:11:44;;;;;;;2.38;1.60;;;27.10;71.70;;;;;;5094764;28;20199;-76
2022/06/17 10:14:34;;;;;;;2.08;1.73;;;27.10;72.90;;;;;;5092306;28;20200;-76
2022/06/17 10:20:05;;;;;;;3.42;1.63;;;27.00;73.50;;;;;;5095412;28;20294;-78
2022/06/17 10:22:45;;;;;;;4.80;1.60;;;27.10;73.10;;;;;;5097318;28;20293;-77
2022/06/17 10:25:31;;;;;;;2.58;1.60;;;26.90;72.30;;;;;;5095531;28;20202;-78
2022/06/17 10:28:11;;;;;;;2.38;1.65;;;26.80;71.60;;;;;;5096329;28;20709;-76
2022/06/17 10:30:46;;;;;;;6.22;1.50;;;26.80;72.80;;;;;;5098111;28;20211;-79
2022/06/17 10:33:16;;;;;;;4.65;1.98;;;26.80;73.20;;;;;;5096284;28;20279;-77
2022/06/17 10:35:45;;;;;;;2.78;1.70;;;26.90;74.60;;;;;;5095472;28;20638;-80
2022/06/17 10:38:17;;;;;;;1.98;1.50;;;26.90;73.30;;;;;;5094682;28;20230;-80
2022/06/17 10:40:44;;;;;;;2.60;1.67;;;27.00;73.80;;;;;;5091732;28;20222;-79
2022/06/17 10:43:17;;;;;;;4.10;1.88;;;27.10;73.60;;;;;;5095368;28;20298;-77
2022/06/17 10:45:44;;;;;;;3.55;1.70;;;27.00;72.60;;;;;;5096409;28;20314;-79
2022/06/17 10:48:22;;;;;;;2.35;1.77;;;26.90;73.10;;;;;;5104741;28;20352;-76
2022/06/17 10:50:48;;;;;;;2.50;1.70;;;26.80;72.50;;;;;;5106201;28;20289;-79
2022/06/17 10:53:21;;;;;;;5.65;2.38;;;26.70;72.00;;;;;;5099350;28;20207;-78
2022/06/17 10:55:51;;;;;;;3.13;2.00;;;26.40;73.60;;;;;;5096816;28;20221;-78
2022/06/17 10:58:22;;;;;;;2.92;1.98;;;26.30;74.80;;;;;;5096684;28;20230;-79
2022/06/17 11:00:58;;;;;;;2.45;1.92;;;26.20;74.60;;;;;;5097792;28;20221;-79
2022/06/17 11:03:29;;;;;;;3.83;2.30;;;26.10;74.90;;;;;;5096613;28;20200;-77
2022/06/17 11:06:03;;;;;;;5.10;2.20;;;26.10;75.80;;;;;;5096324;28;20191;-78
2022/06/17 11:08:35;;;;;;;4.15;2.40;;;26.00;75.50;;;;;;5093977;28;20223;-81
2022/06/17 11:13:47;;;;;;;8.50;2.40;;;26.10;75.30;;;;;;5092086;28;20680;-78
2022/06/17 11:16:18;;;;;;;5.85;2.53;;;26.00;75.40;;;;;;5092292;28;20205;-79
2022/06/17 11:18:53;;;;;;;2.67;2.00;;;26.00;75.20;;;;;;5095906;28;20668;-79
2022/06/17 11:21:25;;;;;;;7.83;2.30;;;25.90;76.10;;;;;;5095951;28;20281;-80
2022/06/17 11:23:54;;;;;;;5.68;2.80;;;25.90;77.40;;;;;;5095591;28;20190;-78
2022/06/17 11:26:25;;;;;;;7.27;2.87;;;25.80;78.00;;;;;;5096242;28;20296;-80
2022/06/17 11:28:57;;;;;;;6.15;3.28;;;25.70;77.90;;;;;;5096629;28;20236;-78
2022/06/17 11:31:38;;;;;;;6.80;2.85;;;25.60;78.10;;;;;;5095300;28;20208;-80
2022/06/17 11:34:14;;;;;;;4.93;2.67;;;25.50;77.50;;;;;;5094839;28;20201;-77
2022/06/17 11:36:57;;;;;;;5.60;2.43;;;25.50;77.30;;;;;;5091716;28;20202;-78
2022/06/17 11:39:33;;;;;;;23.23;3.70;;;25.50;77.50;;;;;;5092590;28;20271;-79
2022/06/17 11:42:03;;;;;;;6.30;4.20;;;25.70;77.80;;;;;;5093301;28;20696;-77
2022/06/17 11:44:32;;;;;;;9.93;4.10;;;25.60;77.70;;;;;;5094535;28;20282;-77
2022/06/17 11:47:02;;;;;;;7.23;3.30;;;25.50;78.70;;;;;;5095349;28;20286;-76
2022/06/17 11:49:34;;;;;;;8.30;3.50;;;25.50;77.60;;;;;;5095522;28;20206;-78
2022/06/17 11:52:05;;;;;;;10.23;4.07;;;25.40;77.40;;;;;;5092828;28;20281;-77
2022/06/17 11:54:35;;;;;;;7.37;3.90;;;25.50;77.10;;;;;;5095078;28;20285;-76
2022/06/17 11:57:15;;;;;;;7.35;3.50;;;25.40;77.20;;;;;;5095918;28;20186;-78
2022/06/17 11:59:47;;;;;;;5.80;3.70;;;25.40;77.20;;;;;;5095031;28;20294;-76
2022/06/17 12:02:14;;;;;;;8.40;3.90;;;25.30;77.30;;;;;;5095025;28;20195;-77
2022/06/17 12:04:44;;;;;;;7.13;4.03;;;25.30;77.40;;;;;;5095725;28;20665;-77
2022/06/17 12:07:35;;;;;;;6.90;4.27;;;25.10;77.00;;;;;;5094799;28;20597;-76
2022/06/17 12:10:13;;;;;;;9.67;4.17;;;25.00;77.00;;;;;;5094480;28;20323;-78
2022/06/17 12:12:41;;;;;;;8.43;4.20;;;25.00;77.90;;;;;;5095014;28;20278;-77
2022/06/17 12:15:24;;;;;;;7.70;4.37;;;24.90;78.40;;;;;;5095584;28;20295;-78
2022/06/17 12:17:52;;;;;;;11.07;4.27;;;25.00;78.20;;;;;;5094982;28;20612;-78
2022/06/17 12:20:24;;;;;;;8.00;3.93;;;25.00;77.70;;;;;;5094529;28;20316;-78
2022/06/17 12:22:58;;;;;;;5.70;3.53;;;25.00;76.90;;;;;;5095014;28;20218;-77
2022/06/17 12:25:37;;;;;;;11.40;3.80;;;24.80;77.70;;;;;;5094766;28;20293;-81
2022/06/17 12:28:12;;;;;;;9.23;4.23;;;24.90;78.60;;;;;;5095689;28;20365;-79
2022/06/17 12:30:46;;;;;;;11.17;4.53;;;24.90;79.20;;;;;;5094472;28;20194;-78
2022/06/17 12:33:23;;;;;;;9.00;4.50;;;24.90;79.60;;;;;;5094308;28;20194;-75
2022/06/17 12:35:57;;;;;;;13.03;4.60;;;24.90;79.20;;;;;;5094400;28;20636;-77
2022/06/17 12:38:31;;;;;;;10.07;5.90;;;24.70;79.70;;;;;;5093776;28;20281;-78
2022/06/17 12:41:03;;;;;;;9.83;5.47;;;24.40;81.60;;;;;;5093718;28;20208;-78
2022/06/17 12:43:36;;;;;;;10.60;5.53;;;24.20;83.10;;;;;;5094386;28;20224;-76
2022/06/17 12:46:09;;;;;;;11.63;5.50;;;24.10;83.30;;;;;;5094122;28;20312;-78
2022/06/17 12:48:49;;;;;;;14.43;5.80;;;24.10;83.80;;;;;;5093191;28;20192;-77
2022/06/17 12:54:22;;;;;;;9.30;5.63;;;24.20;83.60;;;;;;5092300;28;20583;-73
2022/06/17 12:57:00;;;;;;;12.20;5.73;;;24.30;83.00;;;;;;5093585;28;20195;-73
2022/06/17 12:59:40;;;;;;;11.27;5.27;;;24.20;82.40;;;;;;5092404;28;20578;-74
2022/06/17 13:02:12;;;;;;;43.03;7.80;;;24.20;81.80;;;;;;5094820;28;20248;-75
2022/06/17 13:04:54;;;;;;;7.90;4.37;;;24.30;81.30;;;;;;5093709;28;20205;-74
2022/06/17 13:07:30;;;;;;;6.73;4.20;;;24.20;81.50;;;;;;5092312;28;20589;-74
2022/06/17 13:12:50;;;;;;;9.70;4.00;;;24.20;82.40;;;;;;5091529;28;20315;-74
2022/06/17 13:15:21;;;;;;;8.83;4.50;;;24.20;82.70;;;;;;5093568;28;20639;-76
2022/06/17 13:17:57;;;;;;;11.70;4.43;;;24.20;83.40;;;;;;5093265;28;20282;-73
2022/06/17 13:20:29;;;;;;;9.27;3.40;;;24.10;84.10;;;;;;5092066;28;20209;-70